Time;durP1;ratioP1;P1;durP2;ratioP2;P2;SDS_P1;SDS_P2;PMS_P1;PMS_P2;Temp;Humidity;BMP_temperature;BMP_pressure;BME280_temperature;BME280_humidity;BME280_pressure;Samples;Min_cycle;Max_cycle;Signal;HPM_P1;HPM_P2
2021/04/09 00:01:54;;;;;;;20.23;8.57;;;3.90;99.90;;;;;;5130114;27;20491;-64
2021/04/09 00:04:21;;;;;;;15.70;8.03;;;3.90;99.90;;;;;;5128356;27;20455;-63
2021/04/09 00:06:47;;;;;;;19.93;8.40;;;4.00;99.90;;;;;;5125262;27;20570;-64
2021/04/09 00:09:14;;;;;;;17.67;7.80;;;4.00;99.90;;;;;;5125282;27;20448;-65
2021/04/09 00:11:42;;;;;;;18.53;7.57;;;4.00;99.90;;;;;;5130042;27;20437;-64
2021/04/09 00:14:11;;;;;;;16.30;8.40;;;4.10;99.90;;;;;;5131228;27;20452;-64
2021/04/09 00:16:38;;;;;;;19.27;8.80;;;4.10;99.90;;;;;;5136372;27;20449;-64
2021/04/09 00:19:06;;;;;;;21.00;7.77;;;4.10;99.90;;;;;;5128734;27;20534;-64
2021/04/09 00:21:33;;;;;;;18.20;7.03;;;4.10;99.90;;;;;;5128483;27;20848;-64
2021/04/09 00:23:59;;;;;;;21.20;7.47;;;4.20;99.90;;;;;;5135427;27;20785;-63
2021/04/09 00:26:26;;;;;;;15.50;7.27;;;4.20;99.90;;;;;;5125622;27;20792;-65
2021/04/09 00:28:52;;;;;;;18.63;8.10;;;4.20;99.90;;;;;;5131184;27;20445;-64
2021/04/09 00:31:19;;;;;;;19.13;8.47;;;4.20;99.90;;;;;;5129883;27;20475;-64
2021/04/09 00:33:45;;;;;;;19.67;7.30;;;4.20;99.90;;;;;;5133447;27;20443;-64
2021/04/09 00:36:12;;;;;;;18.43;7.40;;;4.20;99.90;;;;;;5132904;27;20462;-63
2021/04/09 00:38:39;;;;;;;19.80;7.50;;;4.30;99.90;;;;;;5133040;27;21019;-63
2021/04/09 00:41:05;;;;;;;17.53;8.27;;;4.40;99.90;;;;;;5133161;27;21077;-63
2021/04/09 00:43:32;;;;;;;13.00;6.80;;;4.40;99.90;;;;;;5133320;27;20453;-63
2021/04/09 00:45:58;;;;;;;17.80;7.13;;;4.50;99.90;;;;;;5132693;27;20445;-64
2021/04/09 00:48:24;;;;;;;13.90;6.40;;;4.60;99.90;;;;;;5133436;27;20525;-63
2021/04/09 00:50:51;;;;;;;12.80;6.77;;;4.60;99.90;;;;;;5130217;27;21039;-63
2021/04/09 00:53:19;;;;;;;15.80;6.30;;;4.70;99.90;;;;;;5133263;27;20532;-63
2021/04/09 00:55:47;;;;;;;18.03;6.30;;;4.80;99.90;;;;;;5133812;27;20454;-62
2021/04/09 00:58:13;;;;;;;15.83;7.27;;;4.80;99.90;;;;;;5142893;27;20525;-64
2021/04/09 01:00:40;;;;;;;13.97;6.00;;;4.90;99.90;;;;;;5133235;27;20486;-64
2021/04/09 01:03:06;;;;;;;11.87;5.00;;;5.00;99.90;;;;;;5132971;27;20491;-63
2021/04/09 01:05:33;;;;;;;17.60;6.80;;;5.00;99.90;;;;;;5132861;27;20453;-63
2021/04/09 01:08:02;;;;;;;16.27;7.43;;;5.00;99.90;;;;;;5132859;27;20494;-63
2021/04/09 01:10:30;;;;;;;16.07;6.80;;;5.00;99.90;;;;;;5126676;27;20460;-63
2021/04/09 01:12:56;;;;;;;15.13;6.40;;;5.00;99.90;;;;;;5131704;27;20541;-63
2021/04/09 01:15:23;;;;;;;12.07;5.63;;;5.00;99.90;;;;;;5134427;27;20455;-62
2021/04/09 01:17:55;;;;;;;18.43;6.67;;;5.00;99.90;;;;;;5142184;27;20444;-62
2021/04/09 01:20:44;;;;;;;16.37;7.50;;;5.00;99.90;;;;;;5145331;27;20490;-63
2021/04/09 01:23:32;;;;;;;17.10;6.70;;;5.00;99.90;;;;;;5132807;28;20463;-63
2021/04/09 01:26:31;;;;;;;15.63;6.43;;;5.00;99.90;;;;;;5120484;27;20460;-64
2021/04/09 01:29:19;;;;;;;15.20;6.73;;;4.90;99.90;;;;;;5132730;28;20459;-63
2021/04/09 01:31:48;;;;;;;11.27;5.87;;;5.00;99.90;;;;;;5123736;28;20538;-64
2021/04/09 01:34:18;;;;;;;16.40;6.53;;;5.00;99.90;;;;;;5133024;27;20453;-63
2021/04/09 01:36:49;;;;;;;14.17;6.53;;;4.90;99.90;;;;;;5131865;27;20809;-64
2021/04/09 01:39:23;;;;;;;13.00;6.47;;;4.90;99.90;;;;;;5132684;27;20523;-63
2021/04/09 01:42:10;;;;;;;13.60;6.30;;;4.90;99.90;;;;;;5127480;27;20909;-65
2021/04/09 01:44:41;;;;;;;17.30;6.67;;;4.80;99.90;;;;;;5129055;27;20479;-64
2021/04/09 01:47:10;;;;;;;14.20;7.00;;;4.80;99.90;;;;;;5132281;27;20443;-64
2021/04/09 01:49:39;;;;;;;11.97;5.77;;;4.70;99.90;;;;;;5132646;27;20445;-64
2021/04/09 01:52:09;;;;;;;16.70;7.10;;;4.70;99.90;;;;;;5131829;28;20478;-63
2021/04/09 01:54:37;;;;;;;12.20;6.10;;;4.70;99.90;;;;;;5133392;27;20461;-65
2021/04/09 01:57:05;;;;;;;15.07;6.50;;;4.70;99.90;;;;;;5136552;27;20448;-63
2021/04/09 01:59:33;;;;;;;14.53;6.17;;;4.80;99.90;;;;;;5136411;27;20448;-63
2021/04/09 02:02:00;;;;;;;16.57;8.17;;;4.70;99.90;;;;;;5136380;27;20484;-64
2021/04/09 02:04:28;;;;;;;15.40;7.30;;;4.60;99.90;;;;;;5136432;27;20439;-63
2021/04/09 02:06:56;;;;;;;12.37;6.40;;;4.60;99.90;;;;;;5135191;27;20444;-64
2021/04/09 02:09:23;;;;;;;14.70;7.40;;;4.60;99.90;;;;;;5136120;27;20476;-64
2021/04/09 02:11:51;;;;;;;12.77;6.10;;;4.50;99.90;;;;;;5135795;27;20452;-64
2021/04/09 02:14:18;;;;;;;16.50;5.90;;;4.60;99.90;;;;;;5136199;27;20935;-64
2021/04/09 02:16:46;;;;;;;14.63;6.30;;;4.50;99.90;;;;;;5136048;27;20970;-64
2021/04/09 02:19:13;;;;;;;13.70;5.63;;;4.50;99.90;;;;;;5135931;27;20455;-63
2021/04/09 02:21:40;;;;;;;24.93;5.17;;;4.50;99.90;;;;;;5135780;27;20476;-65
2021/04/09 02:24:08;;;;;;;13.87;6.43;;;4.60;99.90;;;;;;5135651;27;20516;-64
2021/04/09 02:26:34;;;;;;;13.50;5.50;;;4.60;99.90;;;;;;5135707;27;20420;-63
2021/04/09 02:29:02;;;;;;;14.17;5.00;;;4.70;99.90;;;;;;5135518;27;20445;-64
2021/04/09 02:31:29;;;;;;;14.70;5.97;;;4.70;99.90;;;;;;5135488;27;20459;-64
2021/04/09 02:33:55;;;;;;;14.10;6.03;;;4.60;99.90;;;;;;5137560;27;21010;-64
2021/04/09 02:36:23;;;;;;;15.07;5.80;;;4.60;99.90;;;;;;5150867;27;20946;-64
2021/04/09 02:38:53;;;;;;;14.27;6.50;;;4.70;99.90;;;;;;5148918;27;20481;-63
2021/04/09 02:41:22;;;;;;;12.67;6.13;;;4.70;99.90;;;;;;5155874;27;20477;-64
2021/04/09 02:43:48;;;;;;;12.40;5.67;;;4.70;99.90;;;;;;5134900;27;20447;-65
2021/04/09 02:46:21;;;;;;;12.97;5.50;;;4.70;99.90;;;;;;5134966;27;20447;-63
2021/04/09 02:48:56;;;;;;;15.63;6.27;;;4.80;99.90;;;;;;5135622;27;20922;-63
2021/04/09 02:51:24;;;;;;;13.13;6.23;;;4.80;99.90;;;;;;5135399;27;20449;-63
2021/04/09 02:53:56;;;;;;;12.33;4.73;;;4.80;99.90;;;;;;5135060;27;20455;-64
2021/04/09 02:56:25;;;;;;;16.90;7.23;;;4.90;99.90;;;;;;5118021;27;20520;-64
2021/04/09 02:58:52;;;;;;;13.47;5.90;;;5.00;99.90;;;;;;5141070;27;20451;-64
2021/04/09 03:01:21;;;;;;;15.67;5.30;;;5.00;99.90;;;;;;5144727;27;20587;-64
2021/04/09 03:03:48;;;;;;;12.60;5.33;;;5.10;99.90;;;;;;5135275;27;20448;-64
2021/04/09 03:06:15;;;;;;;14.50;5.60;;;5.20;99.90;;;;;;5134307;27;20448;-63
2021/04/09 03:08:41;;;;;;;12.73;6.13;;;5.30;99.90;;;;;;5135307;27;20438;-63
2021/04/09 03:11:08;;;;;;;9.73;4.73;;;5.30;99.90;;;;;;5134649;27;20454;-64
2021/04/09 03:13:35;;;;;;;11.03;6.20;;;5.30;99.90;;;;;;5134670;27;21046;-63
2021/04/09 03:16:04;;;;;;;17.63;5.70;;;5.30;99.90;;;;;;5135206;27;20472;-64
2021/04/09 03:18:36;;;;;;;11.20;5.57;;;5.30;99.90;;;;;;5134985;27;20452;-64
2021/04/09 03:21:03;;;;;;;13.37;5.47;;;5.30;99.90;;;;;;5135275;27;20495;-64
2021/04/09 03:23:29;;;;;;;11.43;5.17;;;5.40;99.90;;;;;;5134599;27;20458;-64
2021/04/09 03:25:56;;;;;;;15.50;5.37;;;5.50;99.90;;;;;;5132722;27;20542;-63
2021/04/09 03:28:23;;;;;;;11.57;5.80;;;5.70;99.90;;;;;;5133964;27;20587;-64
2021/04/09 03:30:50;;;;;;;12.13;5.53;;;5.40;99.90;;;;;;5134857;27;20466;-63
2021/04/09 03:33:17;;;;;;;10.70;5.77;;;5.50;99.90;;;;;;5134452;27;20444;-64
2021/04/09 03:35:44;;;;;;;13.80;6.30;;;5.60;99.90;;;;;;5133505;27;20453;-64
2021/04/09 03:38:11;;;;;;;12.27;6.00;;;5.50;99.90;;;;;;5155693;27;20445;-63
2021/04/09 03:40:38;;;;;;;13.33;6.40;;;5.50;99.90;;;;;;5137556;27;20478;-63
2021/04/09 03:43:04;;;;;;;12.00;6.47;;;5.50;99.90;;;;;;5134254;27;20445;-63
2021/04/09 03:45:31;;;;;;;15.17;6.10;;;5.60;99.90;;;;;;5134199;27;20455;-63
2021/04/09 03:47:57;;;;;;;12.50;5.93;;;5.60;99.90;;;;;;5133988;27;20446;-63
2021/04/09 03:50:24;;;;;;;13.03;6.10;;;5.60;99.90;;;;;;5134412;27;20454;-64
2021/04/09 03:52:50;;;;;;;11.77;6.00;;;5.60;99.90;;;;;;5133899;27;20812;-64
2021/04/09 03:55:17;;;;;;;13.40;6.40;;;5.60;99.90;;;;;;5135689;27;20446;-63
2021/04/09 03:57:44;;;;;;;14.13;5.90;;;5.50;99.90;;;;;;5134967;27;20498;-64
2021/04/09 04:00:12;;;;;;;14.63;6.77;;;5.50;99.90;;;;;;5133769;27;20917;-64
2021/04/09 04:02:39;;;;;;;11.60;6.00;;;5.40;99.90;;;;;;5134347;27;20542;-63
2021/04/09 04:05:07;;;;;;;12.43;5.63;;;5.40;99.90;;;;;;5133933;27;20445;-63
2021/04/09 04:07:33;;;;;;;14.47;5.97;;;5.40;99.90;;;;;;5133290;27;20889;-63
2021/04/09 04:09:59;;;;;;;13.07;5.80;;;5.30;99.90;;;;;;5134110;27;20460;-63
2021/04/09 04:12:26;;;;;;;12.43;6.10;;;5.30;99.90;;;;;;5133197;27;20446;-64
2021/04/09 04:14:52;;;;;;;12.17;6.30;;;5.20;99.90;;;;;;5133974;27;20538;-64
2021/04/09 04:17:19;;;;;;;12.57;6.00;;;5.10;99.90;;;;;;5132936;27;20832;-64
2021/04/09 04:19:47;;;;;;;17.60;6.20;;;5.10;99.90;;;;;;5133847;27;20456;-64
2021/04/09 04:22:13;;;;;;;12.97;5.90;;;5.20;99.90;;;;;;5133600;27;20478;-64
2021/04/09 04:24:39;;;;;;;13.00;6.33;;;5.20;99.90;;;;;;5133973;27;20491;-65
2021/04/09 04:27:06;;;;;;;17.73;7.70;;;5.20;99.90;;;;;;5133296;27;20444;-64
2021/04/09 04:29:33;;;;;;;14.40;6.43;;;5.20;99.90;;;;;;5133289;27;20500;-63
2021/04/09 04:31:59;;;;;;;13.43;7.10;;;5.20;99.90;;;;;;5133299;27;20477;-63
2021/04/09 04:34:26;;;;;;;13.00;7.50;;;5.20;99.90;;;;;;5133381;27;20451;-64
2021/04/09 04:36:53;;;;;;;15.30;6.33;;;5.30;99.90;;;;;;5133397;27;20510;-64
2021/04/09 04:39:19;;;;;;;14.97;6.33;;;5.20;99.90;;;;;;5133111;27;20798;-64
2021/04/09 04:41:46;;;;;;;15.27;7.30;;;5.20;99.90;;;;;;5133380;27;20478;-64
2021/04/09 04:44:12;;;;;;;16.23;7.30;;;5.20;99.90;;;;;;5132721;27;20489;-63
2021/04/09 04:46:39;;;;;;;13.10;6.93;;;5.20;99.90;;;;;;5133010;27;20453;-64
2021/04/09 04:49:06;;;;;;;15.50;6.73;;;5.30;99.90;;;;;;5133088;27;20547;-64
2021/04/09 04:51:33;;;;;;;17.40;7.60;;;5.30;99.90;;;;;;5132214;27;20451;-64
2021/04/09 04:54:00;;;;;;;18.20;6.93;;;5.30;99.90;;;;;;5133455;27;20551;-63
2021/04/09 04:56:26;;;;;;;14.67;6.73;;;5.30;99.90;;;;;;5132802;27;20452;-64
2021/04/09 04:58:53;;;;;;;12.17;6.63;;;5.40;99.90;;;;;;5132978;27;20437;-64
2021/04/09 05:01:19;;;;;;;17.70;6.70;;;5.40;99.90;;;;;;5126592;27;20569;-66
2021/04/09 05:03:45;;;;;;;15.17;6.50;;;5.30;99.90;;;;;;5140703;27;20455;-64
2021/04/09 05:06:12;;;;;;;14.13;5.67;;;5.40;99.90;;;;;;5133089;27;20906;-63
2021/04/09 05:08:38;;;;;;;12.57;6.03;;;5.40;99.90;;;;;;5130245;27;20534;-64
2021/04/09 05:11:05;;;;;;;14.60;7.23;;;5.40;99.90;;;;;;5134665;27;20857;-64
2021/04/09 05:13:32;;;;;;;15.17;6.57;;;5.40;99.90;;;;;;5134549;27;20447;-63
2021/04/09 05:15:58;;;;;;;14.87;6.17;;;5.50;99.90;;;;;;5130682;27;20448;-63
2021/04/09 05:18:24;;;;;;;13.57;6.30;;;5.50;99.90;;;;;;5131954;27;20460;-63
2021/04/09 05:20:51;;;;;;;18.53;6.10;;;5.50;99.90;;;;;;5133486;27;20479;-64
2021/04/09 05:23:17;;;;;;;12.20;6.03;;;5.50;99.90;;;;;;5137193;27;20458;-63
2021/04/09 05:25:43;;;;;;;11.20;6.60;;;5.50;99.90;;;;;;5132349;27;20928;-64
2021/04/09 05:28:11;;;;;;;11.27;5.10;;;5.50;99.90;;;;;;5132940;27;20446;-63
2021/04/09 05:30:37;;;;;;;14.93;6.33;;;5.60;99.90;;;;;;5130633;27;20484;-64
2021/04/09 05:33:03;;;;;;;12.20;5.70;;;5.70;99.90;;;;;;5133389;27;20449;-63
2021/04/09 05:35:30;;;;;;;13.20;6.27;;;5.70;99.90;;;;;;5136169;27;20543;-63
2021/04/09 05:37:56;;;;;;;18.63;7.20;;;5.80;99.90;;;;;;5129694;27;20799;-63
2021/04/09 05:40:23;;;;;;;17.77;7.00;;;5.80;99.90;;;;;;5136749;27;21008;-64
2021/04/09 05:42:57;;;;;;;18.23;6.90;;;5.90;99.90;;;;;;5136946;27;20525;-64
2021/04/09 05:45:25;;;;;;;14.20;5.97;;;5.90;99.90;;;;;;5135918;27;20450;-64
2021/04/09 05:47:51;;;;;;;10.90;6.17;;;6.00;99.90;;;;;;5136548;27;20438;-63
2021/04/09 05:50:18;;;;;;;13.70;6.00;;;6.00;99.90;;;;;;5136624;27;20444;-62
2021/04/09 05:52:44;;;;;;;15.10;6.20;;;6.10;99.90;;;;;;5136845;27;20449;-62
2021/04/09 05:55:12;;;;;;;13.33;6.47;;;6.10;99.90;;;;;;5132224;27;20467;-64
2021/04/09 05:57:38;;;;;;;14.43;5.90;;;6.10;99.90;;;;;;5136359;27;20597;-63
2021/04/09 06:00:06;;;;;;;12.40;5.90;;;6.20;99.90;;;;;;5136583;27;21040;-64
2021/04/09 06:02:35;;;;;;;17.57;6.37;;;6.30;99.90;;;;;;5136302;27;21035;-62
2021/04/09 06:05:01;;;;;;;12.70;4.83;;;6.40;99.90;;;;;;5133524;27;20869;-62
2021/04/09 06:07:28;;;;;;;16.10;5.93;;;6.40;99.90;;;;;;5132757;27;20452;-63
2021/04/09 06:09:54;;;;;;;11.47;6.70;;;6.50;99.90;;;;;;5134474;27;20446;-62
2021/04/09 06:12:21;;;;;;;12.53;5.70;;;6.50;99.90;;;;;;5135623;27;20452;-63
2021/04/09 06:14:48;;;;;;;13.30;6.20;;;6.60;99.90;;;;;;5136276;27;20842;-63
2021/04/09 06:17:14;;;;;;;11.83;6.33;;;6.60;99.90;;;;;;5136100;27;20451;-62
2021/04/09 06:19:41;;;;;;;17.37;6.50;;;6.60;99.90;;;;;;5133618;27;20451;-63
2021/04/09 06:22:07;;;;;;;12.33;6.23;;;6.70;99.90;;;;;;5134537;27;20484;-63
2021/04/09 06:24:36;;;;;;;10.93;5.70;;;6.70;99.90;;;;;;5135998;27;20456;-64
2021/04/09 06:27:03;;;;;;;15.27;6.33;;;6.80;99.90;;;;;;5139666;27;20447;-63
2021/04/09 06:29:30;;;;;;;15.60;6.43;;;6.90;99.90;;;;;;5137556;27;20447;-64
2021/04/09 06:31:56;;;;;;;10.93;6.30;;;7.00;99.90;;;;;;5138653;27;20440;-62
2021/04/09 06:34:22;;;;;;;14.70;6.87;;;7.10;99.90;;;;;;5148252;27;21042;-62
2021/04/09 06:36:50;;;;;;;11.93;6.10;;;7.20;99.90;;;;;;5143461;27;20504;-65
2021/04/09 06:39:16;;;;;;;11.70;5.63;;;7.40;99.90;;;;;;5136094;27;20468;-63
2021/04/09 06:41:42;;;;;;;17.43;6.30;;;7.40;99.90;;;;;;5139763;27;20480;-62
2021/04/09 06:44:09;;;;;;;14.83;6.70;;;7.50;99.90;;;;;;5133343;27;20531;-62
2021/04/09 06:46:37;;;;;;;13.70;6.87;;;7.70;99.90;;;;;;5130748;27;20451;-61
2021/04/09 06:49:03;;;;;;;11.70;5.63;;;7.70;99.90;;;;;;5130224;27;20444;-63
2021/04/09 06:51:30;;;;;;;9.60;5.20;;;7.90;99.90;;;;;;5134505;27;20497;-62
2021/04/09 06:53:59;;;;;;;15.90;7.00;;;8.00;99.90;;;;;;5133955;27;20449;-62
2021/04/09 06:56:26;;;;;;;12.20;5.80;;;8.20;99.90;;;;;;5135093;27;21018;-64
2021/04/09 06:58:54;;;;;;;16.23;7.03;;;8.20;99.90;;;;;;5134609;27;20514;-63
2021/04/09 07:01:23;;;;;;;13.90;6.33;;;8.20;99.90;;;;;;5131631;27;20485;-62
2021/04/09 07:03:50;;;;;;;14.67;5.70;;;8.30;99.90;;;;;;5125856;27;20528;-62
2021/04/09 07:06:16;;;;;;;10.57;4.93;;;8.30;99.90;;;;;;5131916;27;20934;-62
2021/04/09 07:08:43;;;;;;;12.20;5.27;;;8.40;99.90;;;;;;5127263;27;21045;-65
2021/04/09 07:11:10;;;;;;;16.30;5.90;;;8.60;99.90;;;;;;5135416;27;20453;-62
2021/04/09 07:13:46;;;;;;;14.57;6.10;;;8.70;99.90;;;;;;5134774;27;20501;-62
2021/04/09 07:16:13;;;;;;;23.73;5.40;;;9.10;99.90;;;;;;5134167;27;20441;-62
2021/04/09 07:18:47;;;;;;;15.30;7.83;;;9.50;99.90;;;;;;5134423;27;21056;-62
2021/04/09 07:21:23;;;;;;;48.30;20.03;;;9.50;99.90;;;;;;5135006;27;20471;-62
2021/04/09 07:23:50;;;;;;;12.10;6.85;;;9.60;99.90;;;;;;5143906;27;20515;-65
2021/04/09 07:26:43;;;;;;;13.13;6.17;;;9.60;99.90;;;;;;5134186;27;20197;-65
2021/04/09 07:29:34;;;;;;;10.90;5.37;;;9.80;99.90;;;;;;5124852;27;20529;-62
2021/04/09 07:32:21;;;;;;;13.57;6.07;;;10.10;99.90;;;;;;5124291;27;20472;-63
2021/04/09 07:34:51;;;;;;;17.47;9.90;;;10.10;99.90;;;;;;5134728;27;20436;-65
2021/04/09 07:37:17;;;;;;;12.43;5.93;;;10.30;99.90;;;;;;5136970;27;20794;-63
2021/04/09 07:39:44;;;;;;;13.60;6.57;;;10.50;99.90;;;;;;5133533;27;20838;-63
2021/04/09 07:42:13;;;;;;;10.17;5.93;;;11.00;99.90;;;;;;5133770;27;20484;-63
2021/04/09 07:44:42;;;;;;;11.70;6.20;;;11.50;99.90;;;;;;5133796;27;20444;-63
2021/04/09 07:47:09;;;;;;;13.13;6.33;;;11.60;99.90;;;;;;5132655;27;20805;-64
2021/04/09 07:49:36;;;;;;;10.63;5.63;;;12.20;99.90;;;;;;5133898;27;20443;-65
2021/04/09 07:52:13;;;;;;;13.97;7.07;;;12.10;99.90;;;;;;5134977;27;20578;-63
2021/04/09 07:54:39;;;;;;;11.80;6.93;;;12.70;99.90;;;;;;5135144;27;20531;-63
2021/04/09 07:57:07;;;;;;;14.27;5.80;;;12.80;99.90;;;;;;5139198;27;20458;-63
2021/04/09 07:59:37;;;;;;;10.60;5.33;;;12.80;99.90;;;;;;5137171;27;20448;-66
2021/04/09 08:02:04;;;;;;;10.70;5.80;;;13.40;99.90;;;;;;5134943;27;20528;-65
2021/04/09 08:04:37;;;;;;;10.40;5.53;;;13.90;99.90;;;;;;5133518;27;20491;-63
2021/04/09 08:07:04;;;;;;;10.50;5.87;;;14.10;99.90;;;;;;5135789;27;20447;-64
2021/04/09 08:09:48;;;;;;;28.23;7.03;;;13.90;99.90;;;;;;5142683;27;20447;-63
2021/04/09 08:12:27;;;;;;;12.67;6.30;;;14.10;99.90;;;;;;5134881;27;20800;-63
2021/04/09 08:14:55;;;;;;;13.03;6.17;;;14.20;99.90;;;;;;5133061;27;20444;-61
2021/04/09 08:17:23;;;;;;;11.10;6.23;;;14.60;98.40;;;;;;5142679;27;20526;-60
2021/04/09 08:19:56;;;;;;;10.30;5.40;;;14.70;97.80;;;;;;5127679;27;20452;-63
2021/04/09 08:22:23;;;;;;;9.10;5.30;;;15.60;99.40;;;;;;5139315;27;20597;-63
2021/04/09 08:24:50;;;;;;;9.00;4.83;;;16.50;97.20;;;;;;5133586;27;20589;-64
2021/04/09 08:27:17;;;;;;;10.03;4.90;;;17.80;95.10;;;;;;5124696;27;20931;-64
2021/04/09 08:29:44;;;;;;;12.40;6.33;;;18.40;92.60;;;;;;5133968;27;20475;-63
2021/04/09 08:32:12;;;;;;;8.10;4.83;;;17.40;88.10;;;;;;5133488;27;20432;-65
2021/04/09 08:34:38;;;;;;;11.67;6.83;;;18.40;86.00;;;;;;5137336;27;20454;-64
2021/04/09 08:37:05;;;;;;;11.27;6.23;;;18.60;87.50;;;;;;5145159;27;20449;-63
2021/04/09 08:39:33;;;;;;;8.90;5.40;;;19.00;82.10;;;;;;5141781;27;20535;-65
2021/04/09 08:42:00;;;;;;;17.90;6.90;;;17.90;82.60;;;;;;5133038;27;20572;-63
2021/04/09 08:44:26;;;;;;;11.03;6.53;;;17.70;79.10;;;;;;5134027;27;20447;-62
2021/04/09 08:46:52;;;;;;;10.77;5.67;;;16.90;80.90;;;;;;5132531;27;20449;-62
2021/04/09 08:49:21;;;;;;;13.30;6.33;;;16.70;82.40;;;;;;5133492;27;20444;-61
2021/04/09 08:51:48;;;;;;;12.13;6.50;;;17.10;84.10;;;;;;5132565;27;20440;-62
2021/04/09 08:54:22;;;;;;;12.07;6.07;;;16.50;82.90;;;;;;5132856;27;20480;-62
2021/04/09 08:56:50;;;;;;;10.50;6.03;;;16.50;81.60;;;;;;5131456;27;20527;-62
2021/04/09 08:59:40;;;;;;;13.00;5.40;;;16.60;83.80;;;;;;5132817;27;20802;-62
2021/04/09 09:02:17;;;;;;;9.50;5.70;;;17.30;83.40;;;;;;5131212;27;20888;-62
2021/04/09 09:05:00;;;;;;;10.03;4.70;;;17.20;80.50;;;;;;5131211;27;20791;-62
2021/04/09 09:07:54;;;;;;;12.00;5.70;;;17.50;81.00;;;;;;5129991;27;20450;-65
2021/04/09 09:10:51;;;;;;;8.63;5.17;;;17.10;83.30;;;;;;5122239;27;20443;-64
2021/04/09 09:13:24;;;;;;;8.43;4.97;;;18.10;79.30;;;;;;5109599;28;20456;-62
2021/04/09 09:16:01;;;;;;;11.80;5.47;;;17.70;80.70;;;;;;5128065;27;20837;-63
2021/04/09 09:18:48;;;;;;;10.47;5.87;;;18.30;81.70;;;;;;5123573;27;20522;-63
2021/04/09 09:21:40;;;;;;;9.73;6.13;;;18.60;81.50;;;;;;5116908;27;20484;-63
2021/04/09 09:24:23;;;;;;;9.80;4.67;;;19.20;77.90;;;;;;5123118;28;20455;-62
2021/04/09 09:26:52;;;;;;;8.63;4.80;;;19.80;78.00;;;;;;5129254;27;20592;-62
2021/04/09 09:29:21;;;;;;;10.80;4.97;;;20.70;79.60;;;;;;5127775;27;20476;-63
2021/04/09 09:31:59;;;;;;;9.97;5.53;;;22.50;79.50;;;;;;5130369;28;20515;-63
2021/04/09 09:34:40;;;;;;;8.90;3.73;;;22.90;72.00;;;;;;5129285;27;20540;-62
2021/04/09 09:37:10;;;;;;;8.40;4.50;;;22.70;68.70;;;;;;5123576;27;20448;-65
2021/04/09 09:39:39;;;;;;;7.87;4.33;;;22.60;65.20;;;;;;5122361;27;20972;-63
2021/04/09 09:42:09;;;;;;;8.90;4.40;;;23.20;69.10;;;;;;5121761;27;20483;-62
2021/04/09 09:44:42;;;;;;;8.23;3.80;;;23.00;62.30;;;;;;5132243;28;20448;-62
2021/04/09 09:47:27;;;;;;;8.17;3.90;;;22.60;63.50;;;;;;5128092;27;20493;-66
2021/04/09 09:50:15;;;;;;;10.53;4.70;;;24.00;66.40;;;;;;5125770;27;20452;-63
2021/04/09 09:52:44;;;;;;;10.03;5.00;;;24.30;58.40;;;;;;5124765;28;20542;-63
2021/04/09 09:55:13;;;;;;;8.93;4.70;;;23.60;58.90;;;;;;5125561;28;20456;-63
2021/04/09 09:57:48;;;;;;;8.07;5.17;;;22.80;58.10;;;;;;5120658;28;20481;-63
2021/04/09 10:00:23;;;;;;;13.33;5.60;;;21.90;59.50;;;;;;5124172;28;20438;-66
2021/04/09 10:02:50;;;;;;;10.10;6.30;;;21.30;59.90;;;;;;5128203;28;20510;-64
2021/04/09 10:05:17;;;;;;;9.60;4.77;;;20.30;59.90;;;;;;5115347;28;20824;-63
2021/04/09 10:07:45;;;;;;;9.53;5.20;;;19.40;60.90;;;;;;5123764;27;20456;-63
2021/04/09 10:10:12;;;;;;;12.03;6.17;;;18.80;64.50;;;;;;5121488;27;20528;-62
2021/04/09 10:12:38;;;;;;;10.47;6.10;;;17.60;65.70;;;;;;5130664;27;20447;-61
2021/04/09 10:15:06;;;;;;;11.50;5.67;;;17.80;65.80;;;;;;5131103;27;20529;-62
2021/04/09 10:17:32;;;;;;;8.90;5.07;;;17.70;66.60;;;;;;5135663;27;20466;-62
2021/04/09 10:20:05;;;;;;;11.30;5.70;;;17.20;67.60;;;;;;5135951;27;21062;-61
2021/04/09 10:22:31;;;;;;;11.07;5.80;;;16.50;67.80;;;;;;5128248;27;20516;-66
2021/04/09 10:24:58;;;;;;;9.50;5.03;;;16.00;68.70;;;;;;5134367;27;20443;-61
2021/04/09 10:27:25;;;;;;;11.17;5.80;;;15.90;70.40;;;;;;5129288;27;20504;-62
2021/04/09 10:29:51;;;;;;;11.00;5.30;;;15.80;71.00;;;;;;5134879;27;20474;-66
2021/04/09 10:32:19;;;;;;;13.87;5.70;;;15.90;72.80;;;;;;5134600;27;20529;-61
2021/04/09 10:34:47;;;;;;;10.53;4.87;;;15.60;72.50;;;;;;5134349;27;20496;-64
2021/04/09 10:37:25;;;;;;;10.77;4.80;;;16.10;72.60;;;;;;5134250;27;20444;-62
2021/04/09 10:39:53;;;;;;;9.77;5.10;;;16.00;73.60;;;;;;5130485;27;20474;-62
2021/04/09 10:42:21;;;;;;;9.43;5.10;;;16.20;72.80;;;;;;5133977;27;20480;-64
2021/04/09 10:44:47;;;;;;;9.27;5.20;;;16.60;73.50;;;;;;5134443;27;20844;-62
2021/04/09 10:47:14;;;;;;;10.10;4.83;;;17.20;72.10;;;;;;5134207;27;20528;-62
2021/04/09 10:49:41;;;;;;;10.23;4.90;;;16.90;70.60;;;;;;5134198;27;20455;-63
2021/04/09 10:52:10;;;;;;;7.73;4.93;;;17.40;71.40;;;;;;5134155;27;20520;-64
2021/04/09 10:54:38;;;;;;;11.37;4.90;;;17.20;70.50;;;;;;5131597;27;20441;-63
2021/04/09 10:57:06;;;;;;;13.10;5.60;;;17.60;71.10;;;;;;5133753;27;20463;-62
2021/04/09 10:59:35;;;;;;;7.90;4.97;;;17.40;69.80;;;;;;5134482;27;20453;-63
2021/04/09 11:02:03;;;;;;;8.43;3.73;;;19.00;73.00;;;;;;5133884;27;20484;-64
2021/04/09 11:04:31;;;;;;;8.47;5.10;;;20.10;67.10;;;;;;5134826;27;20997;-66
2021/04/09 11:07:01;;;;;;;11.57;4.90;;;19.40;67.50;;;;;;5133727;27;20441;-65
2021/04/09 11:09:41;;;;;;;10.23;6.00;;;19.70;67.80;;;;;;5133893;27;20974;-62
2021/04/09 11:12:18;;;;;;;11.70;5.37;;;19.90;66.00;;;;;;5134033;27;20496;-63
2021/04/09 11:14:45;;;;;;;10.03;5.50;;;20.40;65.10;;;;;;5134058;27;20456;-65
2021/04/09 11:17:23;;;;;;;8.17;4.93;;;21.20;64.00;;;;;;5124988;27;20991;-62
2021/04/09 11:19:53;;;;;;;14.50;6.10;;;20.50;62.60;;;;;;5134250;27;20852;-64
2021/04/09 11:22:20;;;;;;;11.43;4.83;;;19.80;65.10;;;;;;5133687;27;21057;-61
2021/04/09 11:24:56;;;;;;;10.30;5.47;;;19.60;67.60;;;;;;5134079;27;20458;-66
2021/04/09 11:27:24;;;;;;;10.23;5.83;;;19.20;64.20;;;;;;5133876;27;20468;-61
2021/04/09 11:30:05;;;;;;;10.33;4.93;;;18.30;67.00;;;;;;5134544;27;20448;-62
2021/04/09 11:32:38;;;;;;;9.50;5.90;;;18.80;66.30;;;;;;5130107;27;20460;-65
2021/04/09 11:35:09;;;;;;;12.20;6.10;;;18.70;66.90;;;;;;5133712;27;20532;-62
2021/04/09 11:37:43;;;;;;;12.67;6.20;;;18.70;66.70;;;;;;5133939;27;20520;-63
2021/04/09 11:40:12;;;;;;;8.33;5.17;;;18.40;67.60;;;;;;5127813;27;20533;-64
2021/04/09 11:42:38;;;;;;;12.07;6.10;;;17.80;66.80;;;;;;5132728;27;20480;-62
2021/04/09 11:45:08;;;;;;;10.13;5.23;;;17.90;68.90;;;;;;5133738;27;20444;-63
2021/04/09 11:47:36;;;;;;;12.67;5.70;;;17.70;68.80;;;;;;5132441;27;20436;-62
2021/04/09 11:50:07;;;;;;;10.83;5.90;;;17.20;68.90;;;;;;5128920;27;20528;-64
2021/04/09 11:52:52;;;;;;;18.93;6.70;;;17.20;70.00;;;;;;5134132;27;20531;-63
2021/04/09 11:55:20;;;;;;;10.50;5.50;;;17.50;70.90;;;;;;5134206;27;20523;-62
2021/04/09 11:57:47;;;;;;;10.30;5.97;;;17.20;69.30;;;;;;5133917;27;20444;-62
2021/04/09 12:00:26;;;;;;;8.43;5.03;;;16.90;70.60;;;;;;5133565;27;20472;-67
2021/04/09 12:02:54;;;;;;;10.53;5.67;;;16.40;71.90;;;;;;5132680;27;20544;-62
2021/04/09 12:05:21;;;;;;;11.23;5.67;;;16.10;71.20;;;;;;5127458;27;20501;-62
2021/04/09 12:07:48;;;;;;;9.23;5.87;;;15.30;72.30;;;;;;5127233;27;20441;-65
2021/04/09 12:10:16;;;;;;;11.60;5.73;;;14.90;73.00;;;;;;5131443;27;20857;-63
2021/04/09 12:12:43;;;;;;;9.30;5.03;;;14.70;74.70;;;;;;5130176;27;20444;-67
2021/04/09 12:15:11;;;;;;;11.80;6.50;;;15.00;75.10;;;;;;5133434;27;20924;-63
2021/04/09 12:17:38;;;;;;;12.27;6.03;;;15.20;75.20;;;;;;5132825;27;20879;-65
2021/04/09 12:20:08;;;;;;;12.23;5.97;;;14.80;75.90;;;;;;5132688;27;20523;-68
2021/04/09 12:22:35;;;;;;;9.30;5.10;;;15.00;77.00;;;;;;5133174;27;20994;-66
2021/04/09 12:25:01;;;;;;;8.87;5.70;;;16.10;77.00;;;;;;5132820;27;20450;-65
2021/04/09 12:27:28;;;;;;;10.63;5.27;;;17.10;83.20;;;;;;5132249;27;21014;-63
2021/04/09 12:29:54;;;;;;;11.63;5.57;;;20.00;73.20;;;;;;5132831;27;20448;-64
2021/04/09 12:32:21;;;;;;;14.30;5.63;;;19.90;69.30;;;;;;5132797;27;20950;-67
2021/04/09 12:34:48;;;;;;;9.53;5.50;;;18.70;69.50;;;;;;5133141;27;20444;-64
2021/04/09 12:37:14;;;;;;;9.40;5.40;;;19.10;69.20;;;;;;5132390;27;20589;-66
2021/04/09 12:39:41;;;;;;;7.63;5.03;;;18.70;69.00;;;;;;5129672;27;20867;-63
2021/04/09 12:42:08;;;;;;;9.47;5.40;;;18.40;67.50;;;;;;5129486;27;20993;-63
2021/04/09 12:44:35;;;;;;;8.80;4.77;;;17.40;67.10;;;;;;5132659;27;20895;-63
2021/04/09 12:47:02;;;;;;;8.93;4.50;;;16.40;70.40;;;;;;5126515;27;20827;-66
2021/04/09 12:49:29;;;;;;;12.70;6.30;;;16.10;73.20;;;;;;5132068;27;20449;-63
2021/04/09 12:51:56;;;;;;;11.87;6.07;;;16.00;73.30;;;;;;5131909;27;20444;-67
2021/04/09 12:54:23;;;;;;;8.00;5.40;;;16.00;74.40;;;;;;5129519;27;20998;-66